sensor_id;sensor_type;location;lat;lon;timestamp;P1;durP1;ratioP1;P2;durP2;ratioP2
78664;SDS011;67981;51.022;-2.870;2023-04-01T00:01:54;6.00;;;1.33;;
78664;SDS011;67981;51.022;-2.870;2023-04-01T00:04:20;4.47;;;1.60;;
78664;SDS011;67981;51.022;-2.870;2023-04-01T00:06:45;2.30;;;1.05;;
78664;SDS011;67981;51.022;-2.870;2023-04-01T00:09:12;3.88;;;1.58;;
78664;SDS011;67981;51.022;-2.870;2023-04-01T00:11:38;2.92;;;1.15;;
78664;SDS011;67981;51.022;-2.870;2023-04-01T00:14:04;4.65;;;1.30;;
78664;SDS011;67981;51.022;-2.870;2023-04-01T00:16:30;8.73;;;1.48;;
78664;SDS011;67981;51.022;-2.870;2023-04-01T00:18:56;5.20;;;1.42;;
78664;SDS011;67981;51.022;-2.870;2023-04-01T00:21:21;4.03;;;1.63;;
78664;SDS011;67981;51.022;-2.870;2023-04-01T00:23:48;5.05;;;1.10;;
78664;SDS011;67981;51.022;-2.870;2023-04-01T00:26:15;3.33;;;1.10;;
78664;SDS011;67981;51.022;-2.870;2023-04-01T00:28:43;2.03;;;1.00;;
78664;SDS011;67981;51.022;-2.870;2023-04-01T00:31:10;8.07;;;1.50;;
78664;SDS011;67981;51.022;-2.870;2023-04-01T00:33:35;3.95;;;1.17;;
78664;SDS011;67981;51.022;-2.870;2023-04-01T00:36:11;3.70;;;1.00;;
78664;SDS011;67981;51.022;-2.870;2023-04-01T00:38:39;14.68;;;1.83;;
78664;SDS011;67981;51.022;-2.870;2023-04-01T00:41:06;3.25;;;0.95;;
78664;SDS011;67981;51.022;-2.870;2023-04-01T00:43:32;5.03;;;1.67;;
78664;SDS011;67981;51.022;-2.870;2023-04-01T00:45:58;5.95;;;1.40;;
78664;SDS011;67981;51.022;-2.870;2023-04-01T00:48:33;5.35;;;1.50;;
78664;SDS011;67981;51.022;-2.870;2023-04-01T00:53:32;4.85;;;1.20;;
78664;SDS011;67981;51.022;-2.870;2023-04-01T00:56:04;4.72;;;1.40;;
78664;SDS011;67981;51.022;-2.870;2023-04-01T00:58:36;4.05;;;1.70;;
78664;SDS011;67981;51.022;-2.870;2023-04-01T01:01:06;3.50;;;1.02;;
78664;SDS011;67981;51.022;-2.870;2023-04-01T01:03:33;7.25;;;1.00;;
78664;SDS011;67981;51.022;-2.870;2023-04-01T01:11:14;6.28;;;1.35;;
78664;SDS011;67981;51.022;-2.870;2023-04-01T01:14:01;2.85;;;1.10;;
78664;SDS011;67981;51.022;-2.870;2023-04-01T01:16:44;9.00;;;1.85;;
78664;SDS011;67981;51.022;-2.870;2023-04-01T01:27:33;3.97;;;1.65;;
78664;SDS011;67981;51.022;-2.870;2023-04-01T01:35:40;6.40;;;1.98;;
78664;SDS011;67981;51.022;-2.870;2023-04-01T01:38:16;2.78;;;1.50;;
78664;SDS011;67981;51.022;-2.870;2023-04-01T01:40:45;4.85;;;1.52;;
78664;SDS011;67981;51.022;-2.870;2023-04-01T01:43:17;3.42;;;1.20;;
78664;SDS011;67981;51.022;-2.870;2023-04-01T01:45:49;4.38;;;1.90;;
78664;SDS011;67981;51.022;-2.870;2023-04-01T01:48:18;10.10;;;1.55;;
78664;SDS011;67981;51.022;-2.870;2023-04-01T01:50:45;5.75;;;1.38;;
78664;SDS011;67981;51.022;-2.870;2023-04-01T01:53:12;5.30;;;1.42;;
78664;SDS011;67981;51.022;-2.870;2023-04-01T01:55:41;11.57;;;1.70;;
78664;SDS011;67981;51.022;-2.870;2023-04-01T01:58:13;5.63;;;1.75;;
78664;SDS011;67981;51.022;-2.870;2023-04-01T02:00:41;3.60;;;1.42;;
78664;SDS011;67981;51.022;-2.870;2023-04-01T02:03:10;4.60;;;1.00;;
78664;SDS011;67981;51.022;-2.870;2023-04-01T02:05:38;5.28;;;1.15;;
78664;SDS011;67981;51.022;-2.870;2023-04-01T02:08:15;4.57;;;1.23;;
78664;SDS011;67981;51.022;-2.870;2023-04-01T02:10:53;4.90;;;1.30;;
78664;SDS011;67981;51.022;-2.870;2023-04-01T02:13:28;3.25;;;1.10;;
78664;SDS011;67981;51.022;-2.870;2023-04-01T02:16:00;2.60;;;0.88;;
78664;SDS011;67981;51.022;-2.870;2023-04-01T02:18:32;4.55;;;1.00;;
78664;SDS011;67981;51.022;-2.870;2023-04-01T02:21:00;4.65;;;1.13;;
78664;SDS011;67981;51.022;-2.870;2023-04-01T02:23:27;8.00;;;1.15;;
78664;SDS011;67981;51.022;-2.870;2023-04-01T02:25:53;7.05;;;1.48;;
78664;SDS011;67981;51.022;-2.870;2023-04-01T02:28:19;2.78;;;1.10;;
78664;SDS011;67981;51.022;-2.870;2023-04-01T02:30:45;4.35;;;1.55;;
78664;SDS011;67981;51.022;-2.870;2023-04-01T02:33:14;7.10;;;1.40;;
78664;SDS011;67981;51.022;-2.870;2023-04-01T02:35:40;4.05;;;1.70;;
78664;SDS011;67981;51.022;-2.870;2023-04-01T02:38:06;8.60;;;1.80;;
78664;SDS011;67981;51.022;-2.870;2023-04-01T02:40:40;5.03;;;1.98;;
78664;SDS011;67981;51.022;-2.870;2023-04-01T02:43:07;4.97;;;1.35;;
78664;SDS011;67981;51.022;-2.870;2023-04-01T02:45:33;9.18;;;1.98;;
78664;SDS011;67981;51.022;-2.870;2023-04-01T02:47:58;4.70;;;1.23;;
78664;SDS011;67981;51.022;-2.870;2023-04-01T02:50:23;4.03;;;1.77;;
78664;SDS011;67981;51.022;-2.870;2023-04-01T02:52:49;3.70;;;1.30;;
78664;SDS011;67981;51.022;-2.870;2023-04-01T02:55:14;5.82;;;1.92;;
78664;SDS011;67981;51.022;-2.870;2023-04-01T02:57:40;9.38;;;1.75;;
78664;SDS011;67981;51.022;-2.870;2023-04-01T03:00:05;6.18;;;1.88;;
78664;SDS011;67981;51.022;-2.870;2023-04-01T03:02:36;4.47;;;1.50;;
78664;SDS011;67981;51.022;-2.870;2023-04-01T03:05:02;5.47;;;1.95;;
78664;SDS011;67981;51.022;-2.870;2023-04-01T03:07:28;8.25;;;1.67;;
78664;SDS011;67981;51.022;-2.870;2023-04-01T03:09:54;3.80;;;1.95;;
78664;SDS011;67981;51.022;-2.870;2023-04-01T03:12:19;6.53;;;1.58;;
78664;SDS011;67981;51.022;-2.870;2023-04-01T03:14:45;6.30;;;1.50;;
78664;SDS011;67981;51.022;-2.870;2023-04-01T03:17:10;5.80;;;1.70;;
78664;SDS011;67981;51.022;-2.870;2023-04-01T03:19:36;8.93;;;2.85;;
78664;SDS011;67981;51.022;-2.870;2023-04-01T03:22:01;4.22;;;1.90;;
78664;SDS011;67981;51.022;-2.870;2023-04-01T03:24:27;5.05;;;1.52;;
78664;SDS011;67981;51.022;-2.870;2023-04-01T03:26:52;6.45;;;1.73;;
78664;SDS011;67981;51.022;-2.870;2023-04-01T03:29:18;8.00;;;1.52;;
78664;SDS011;67981;51.022;-2.870;2023-04-01T03:31:43;2.78;;;1.30;;
78664;SDS011;67981;51.022;-2.870;2023-04-01T03:34:09;6.53;;;2.08;;
78664;SDS011;67981;51.022;-2.870;2023-04-01T03:36:35;7.88;;;1.65;;
78664;SDS011;67981;51.022;-2.870;2023-04-01T03:39:01;6.45;;;1.42;;
78664;SDS011;67981;51.022;-2.870;2023-04-01T03:41:28;3.00;;;1.27;;
78664;SDS011;67981;51.022;-2.870;2023-04-01T03:43:53;2.38;;;1.40;;
78664;SDS011;67981;51.022;-2.870;2023-04-01T03:46:19;5.03;;;1.60;;
78664;SDS011;67981;51.022;-2.870;2023-04-01T03:48:45;5.57;;;1.35;;
78664;SDS011;67981;51.022;-2.870;2023-04-01T03:51:11;4.63;;;1.95;;
78664;SDS011;67981;51.022;-2.870;2023-04-01T03:53:36;3.15;;;1.63;;
78664;SDS011;67981;51.022;-2.870;2023-04-01T03:56:05;4.47;;;1.52;;
78664;SDS011;67981;51.022;-2.870;2023-04-01T03:58:31;3.67;;;1.20;;
78664;SDS011;67981;51.022;-2.870;2023-04-01T04:00:57;2.70;;;1.10;;
78664;SDS011;67981;51.022;-2.870;2023-04-01T04:03:22;3.53;;;1.33;;
78664;SDS011;67981;51.022;-2.870;2023-04-01T04:05:48;6.60;;;1.50;;
78664;SDS011;67981;51.022;-2.870;2023-04-01T04:08:14;5.90;;;1.30;;
78664;SDS011;67981;51.022;-2.870;2023-04-01T04:10:40;7.00;;;1.48;;
78664;SDS011;67981;51.022;-2.870;2023-04-01T04:13:06;4.60;;;1.30;;
78664;SDS011;67981;51.022;-2.870;2023-04-01T04:15:32;4.80;;;1.80;;
78664;SDS011;67981;51.022;-2.870;2023-04-01T04:17:57;6.57;;;1.58;;
78664;SDS011;67981;51.022;-2.870;2023-04-01T04:20:22;3.80;;;1.40;;
78664;SDS011;67981;51.022;-2.870;2023-04-01T04:22:48;4.88;;;1.60;;
78664;SDS011;67981;51.022;-2.870;2023-04-01T04:25:13;5.53;;;2.17;;
78664;SDS011;67981;51.022;-2.870;2023-04-01T04:27:39;7.60;;;1.80;;
78664;SDS011;67981;51.022;-2.870;2023-04-01T04:30:05;7.20;;;1.38;;
78664;SDS011;67981;51.022;-2.870;2023-04-01T04:32:31;4.22;;;1.50;;
78664;SDS011;67981;51.022;-2.870;2023-04-01T04:34:57;3.25;;;1.42;;
78664;SDS011;67981;51.022;-2.870;2023-04-01T04:37:22;4.63;;;1.25;;
78664;SDS011;67981;51.022;-2.870;2023-04-01T04:39:48;3.55;;;1.30;;
78664;SDS011;67981;51.022;-2.870;2023-04-01T04:42:13;5.78;;;1.85;;
78664;SDS011;67981;51.022;-2.870;2023-04-01T04:44:39;7.35;;;1.48;;
78664;SDS011;67981;51.022;-2.870;2023-04-01T04:47:04;6.78;;;1.60;;
78664;SDS011;67981;51.022;-2.870;2023-04-01T04:49:30;3.75;;;1.63;;
78664;SDS011;67981;51.022;-2.870;2023-04-01T04:51:56;9.48;;;2.03;;
78664;SDS011;67981;51.022;-2.870;2023-04-01T04:54:21;8.20;;;1.42;;
78664;SDS011;67981;51.022;-2.870;2023-04-01T04:56:47;6.95;;;2.05;;
78664;SDS011;67981;51.022;-2.870;2023-04-01T04:59:12;5.63;;;2.28;;
78664;SDS011;67981;51.022;-2.870;2023-04-01T05:01:38;7.97;;;2.15;;
78664;SDS011;67981;51.022;-2.870;2023-04-01T05:04:03;4.47;;;1.65;;
78664;SDS011;67981;51.022;-2.870;2023-04-01T05:06:29;3.30;;;1.42;;
78664;SDS011;67981;51.022;-2.870;2023-04-01T05:08:55;8.95;;;1.52;;
78664;SDS011;67981;51.022;-2.870;2023-04-01T05:11:21;5.07;;;1.63;;
78664;SDS011;67981;51.022;-2.870;2023-04-01T05:13:46;6.20;;;2.05;;
78664;SDS011;67981;51.022;-2.870;2023-04-01T05:16:13;8.05;;;1.75;;
78664;SDS011;67981;51.022;-2.870;2023-04-01T05:21:07;4.47;;;2.43;;
78664;SDS011;67981;51.022;-2.870;2023-04-01T05:23:34;4.95;;;2.05;;
78664;SDS011;67981;51.022;-2.870;2023-04-01T05:26:03;5.13;;;1.70;;
78664;SDS011;67981;51.022;-2.870;2023-04-01T05:28:29;2.78;;;1.42;;
78664;SDS011;67981;51.022;-2.870;2023-04-01T05:30:55;7.75;;;1.58;;
78664;SDS011;67981;51.022;-2.870;2023-04-01T05:33:25;4.75;;;1.52;;
78664;SDS011;67981;51.022;-2.870;2023-04-01T05:35:50;6.22;;;1.55;;
78664;SDS011;67981;51.022;-2.870;2023-04-01T05:38:16;7.65;;;1.40;;
78664;SDS011;67981;51.022;-2.870;2023-04-01T05:40:41;3.63;;;1.48;;
78664;SDS011;67981;51.022;-2.870;2023-04-01T05:43:07;10.10;;;2.42;;
78664;SDS011;67981;51.022;-2.870;2023-04-01T05:45:32;10.35;;;1.85;;
78664;SDS011;67981;51.022;-2.870;2023-04-01T05:47:59;5.30;;;2.15;;
78664;SDS011;67981;51.022;-2.870;2023-04-01T05:50:25;7.63;;;2.90;;
78664;SDS011;67981;51.022;-2.870;2023-04-01T05:52:50;2.70;;;1.90;;
78664;SDS011;67981;51.022;-2.870;2023-04-01T05:55:16;3.72;;;1.52;;
78664;SDS011;67981;51.022;-2.870;2023-04-01T05:57:41;7.65;;;1.70;;
78664;SDS011;67981;51.022;-2.870;2023-04-01T06:00:07;6.03;;;1.33;;
78664;SDS011;67981;51.022;-2.870;2023-04-01T06:02:33;6.88;;;1.85;;
78664;SDS011;67981;51.022;-2.870;2023-04-01T06:05:02;5.78;;;1.45;;
78664;SDS011;67981;51.022;-2.870;2023-04-01T06:07:37;11.38;;;1.67;;
78664;SDS011;67981;51.022;-2.870;2023-04-01T06:10:08;7.70;;;1.60;;
78664;SDS011;67981;51.022;-2.870;2023-04-01T06:12:40;5.80;;;1.83;;
78664;SDS011;67981;51.022;-2.870;2023-04-01T06:21:31;5.10;;;1.58;;
78664;SDS011;67981;51.022;-2.870;2023-04-01T06:23:48;1.17;;;0.85;;
78664;SDS011;67981;51.022;-2.870;2023-04-01T06:39:52;8.52;;;2.28;;
78664;SDS011;67981;51.022;-2.870;2023-04-01T06:45:29;2.97;;;1.35;;
78664;SDS011;67981;51.022;-2.870;2023-04-01T06:48:29;4.47;;;1.30;;
78664;SDS011;67981;51.022;-2.870;2023-04-01T06:54:14;6.15;;;1.63;;
78664;SDS011;67981;51.022;-2.870;2023-04-01T06:56:45;3.75;;;1.50;;
78664;SDS011;67981;51.022;-2.870;2023-04-01T06:59:17;4.28;;;1.63;;
78664;SDS011;67981;51.022;-2.870;2023-04-01T07:02:01;3.95;;;1.10;;
78664;SDS011;67981;51.022;-2.870;2023-04-01T07:04:39;3.47;;;1.20;;
78664;SDS011;67981;51.022;-2.870;2023-04-01T07:09:55;3.22;;;1.17;;
78664;SDS011;67981;51.022;-2.870;2023-04-01T07:12:33;5.05;;;1.52;;
78664;SDS011;67981;51.022;-2.870;2023-04-01T07:15:17;3.00;;;1.60;;
78664;SDS011;67981;51.022;-2.870;2023-04-01T07:17:45;3.97;;;1.80;;
78664;SDS011;67981;51.022;-2.870;2023-04-01T07:22:42;5.10;;;1.30;;
78664;SDS011;67981;51.022;-2.870;2023-04-01T07:25:12;4.82;;;1.50;;
78664;SDS011;67981;51.022;-2.870;2023-04-01T07:27:40;4.38;;;1.50;;
78664;SDS011;67981;51.022;-2.870;2023-04-01T07:30:17;2.83;;;1.35;;
78664;SDS011;67981;51.022;-2.870;2023-04-01T07:38:02;3.10;;;1.08;;
78664;SDS011;67981;51.022;-2.870;2023-04-01T07:40:41;9.93;;;1.48;;
78664;SDS011;67981;51.022;-2.870;2023-04-01T07:43:33;5.28;;;1.83;;
78664;SDS011;67981;51.022;-2.870;2023-04-01T07:49:14;3.90;;;1.67;;
78664;SDS011;67981;51.022;-2.870;2023-04-01T07:52:00;4.47;;;2.33;;
78664;SDS011;67981;51.022;-2.870;2023-04-01T07:57:19;5.07;;;1.35;;
78664;SDS011;67981;51.022;-2.870;2023-04-01T08:02:43;3.97;;;1.00;;
78664;SDS011;67981;51.022;-2.870;2023-04-01T08:05:22;2.72;;;1.08;;
78664;SDS011;67981;51.022;-2.870;2023-04-01T08:17:09;3.60;;;1.20;;
78664;SDS011;67981;51.022;-2.870;2023-04-01T08:20:02;4.07;;;1.05;;
78664;SDS011;67981;51.022;-2.870;2023-04-01T08:22:40;4.72;;;1.30;;
78664;SDS011;67981;51.022;-2.870;2023-04-01T08:25:10;5.30;;;1.58;;
78664;SDS011;67981;51.022;-2.870;2023-04-01T08:27:49;8.00;;;1.75;;
78664;SDS011;67981;51.022;-2.870;2023-04-01T08:30:26;3.92;;;1.20;;
78664;SDS011;67981;51.022;-2.870;2023-04-01T08:35:59;4.30;;;0.93;;
78664;SDS011;67981;51.022;-2.870;2023-04-01T08:38:31;5.85;;;1.92;;
78664;SDS011;67981;51.022;-2.870;2023-04-01T08:44:12;6.05;;;1.63;;
78664;SDS011;67981;51.022;-2.870;2023-04-01T08:52:26;5.45;;;1.58;;
78664;SDS011;67981;51.022;-2.870;2023-04-01T09:14:03;7.70;;;1.65;;
78664;SDS011;67981;51.022;-2.870;2023-04-01T09:27:27;4.60;;;1.33;;
78664;SDS011;67981;51.022;-2.870;2023-04-01T09:32:46;6.40;;;1.52;;
78664;SDS011;67981;51.022;-2.870;2023-04-01T09:35:22;1.30;;;0.75;;
78664;SDS011;67981;51.022;-2.870;2023-04-01T09:38:04;3.30;;;0.80;;
78664;SDS011;67981;51.022;-2.870;2023-04-01T09:43:37;4.75;;;0.88;;
78664;SDS011;67981;51.022;-2.870;2023-04-01T09:46:36;1.98;;;0.77;;
78664;SDS011;67981;51.022;-2.870;2023-04-01T09:54:59;2.00;;;0.82;;
78664;SDS011;67981;51.022;-2.870;2023-04-01T10:56:49;4.60;;;1.75;;
78664;SDS011;67981;51.022;-2.870;2023-04-01T10:59:28;4.75;;;1.52;;
78664;SDS011;67981;51.022;-2.870;2023-04-01T11:30:53;6.18;;;1.52;;
78664;SDS011;67981;51.022;-2.870;2023-04-01T11:38:26;5.10;;;1.63;;
78664;SDS011;67981;51.022;-2.870;2023-04-01T11:40:57;7.05;;;2.38;;
78664;SDS011;67981;51.022;-2.870;2023-04-01T11:43:31;4.50;;;1.85;;
78664;SDS011;67981;51.022;-2.870;2023-04-01T12:11:09;7.95;;;3.35;;
78664;SDS011;67981;51.022;-2.870;2023-04-01T12:58:48;4.60;;;1.80;;
78664;SDS011;67981;51.022;-2.870;2023-04-01T13:09:40;5.07;;;1.90;;
78664;SDS011;67981;51.022;-2.870;2023-04-01T13:25:46;5.43;;;1.50;;
78664;SDS011;67981;51.022;-2.870;2023-04-01T13:33:15;2.65;;;0.80;;
78664;SDS011;67981;51.022;-2.870;2023-04-01T13:42:13;6.35;;;1.20;;
78664;SDS011;67981;51.022;-2.870;2023-04-01T13:44:53;3.03;;;1.70;;
78664;SDS011;67981;51.022;-2.870;2023-04-01T14:01:06;2.63;;;1.83;;
78664;SDS011;67981;51.022;-2.870;2023-04-01T14:25:25;5.43;;;2.90;;
78664;SDS011;67981;51.022;-2.870;2023-04-01T14:30:35;5.18;;;3.53;;
78664;SDS011;67981;51.022;-2.870;2023-04-01T14:36:24;4.63;;;2.55;;
78664;SDS011;67981;51.022;-2.870;2023-04-01T14:47:04;4.40;;;2.35;;
78664;SDS011;67981;51.022;-2.870;2023-04-01T14:49:43;5.68;;;2.90;;
78664;SDS011;67981;51.022;-2.870;2023-04-01T14:52:16;6.07;;;2.72;;
78664;SDS011;67981;51.022;-2.870;2023-04-01T14:54:46;3.75;;;2.15;;
78664;SDS011;67981;51.022;-2.870;2023-04-01T14:57:14;6.68;;;2.15;;
78664;SDS011;67981;51.022;-2.870;2023-04-01T15:05:15;4.10;;;2.65;;
78664;SDS011;67981;51.022;-2.870;2023-04-01T15:08:09;5.30;;;2.40;;
78664;SDS011;67981;51.022;-2.870;2023-04-01T15:10:43;5.20;;;3.38;;
78664;SDS011;67981;51.022;-2.870;2023-04-01T15:13:57;4.05;;;2.38;;
78664;SDS011;67981;51.022;-2.870;2023-04-01T15:19:35;5.07;;;4.03;;
78664;SDS011;67981;51.022;-2.870;2023-04-01T15:31:15;5.22;;;2.95;;
78664;SDS011;67981;51.022;-2.870;2023-04-01T15:39:42;3.25;;;2.70;;
78664;SDS011;67981;51.022;-2.870;2023-04-01T15:56:17;3.72;;;1.80;;
78664;SDS011;67981;51.022;-2.870;2023-04-01T15:58:59;3.05;;;1.88;;
78664;SDS011;67981;51.022;-2.870;2023-04-01T16:12:04;4.50;;;2.40;;
78664;SDS011;67981;51.022;-2.870;2023-04-01T16:22:29;3.25;;;2.47;;
78664;SDS011;67981;51.022;-2.870;2023-04-01T16:35:47;3.85;;;1.80;;
78664;SDS011;67981;51.022;-2.870;2023-04-01T16:46:26;2.42;;;1.50;;
78664;SDS011;67981;51.022;-2.870;2023-04-01T16:49:04;5.57;;;2.22;;
78664;SDS011;67981;51.022;-2.870;2023-04-01T16:56:54;2.75;;;1.63;;
78664;SDS011;67981;51.022;-2.870;2023-04-01T16:59:27;2.80;;;1.42;;
78664;SDS011;67981;51.022;-2.870;2023-04-01T17:21:07;6.70;;;2.90;;
78664;SDS011;67981;51.022;-2.870;2023-04-01T17:26:17;5.28;;;3.22;;
78664;SDS011;67981;51.022;-2.870;2023-04-01T17:28:48;5.00;;;3.10;;
78664;SDS011;67981;51.022;-2.870;2023-04-01T17:31:26;7.50;;;3.33;;
78664;SDS011;67981;51.022;-2.870;2023-04-01T17:48:21;5.15;;;3.05;;
78664;SDS011;67981;51.022;-2.870;2023-04-01T18:02:45;4.57;;;2.38;;
78664;SDS011;67981;51.022;-2.870;2023-04-01T18:14:03;4.75;;;2.45;;
78664;SDS011;67981;51.022;-2.870;2023-04-01T18:22:20;5.75;;;2.42;;
78664;SDS011;67981;51.022;-2.870;2023-04-01T18:27:57;5.30;;;2.10;;
78664;SDS011;67981;51.022;-2.870;2023-04-01T18:30:27;4.65;;;2.33;;
78664;SDS011;67981;51.022;-2.870;2023-04-01T18:32:59;5.38;;;2.60;;
78664;SDS011;67981;51.022;-2.870;2023-04-01T18:35:50;5.88;;;2.65;;
78664;SDS011;67981;51.022;-2.870;2023-04-01T18:38:29;5.90;;;2.13;;
78664;SDS011;67981;51.022;-2.870;2023-04-01T18:44:15;6.43;;;2.83;;
78664;SDS011;67981;51.022;-2.870;2023-04-01T18:47:08;7.10;;;3.10;;
78664;SDS011;67981;51.022;-2.870;2023-04-01T18:53:13;3.67;;;2.33;;
78664;SDS011;67981;51.022;-2.870;2023-04-01T18:58:34;5.88;;;2.42;;
78664;SDS011;67981;51.022;-2.870;2023-04-01T19:01:39;6.90;;;3.25;;
78664;SDS011;67981;51.022;-2.870;2023-04-01T19:04:15;4.53;;;2.00;;
78664;SDS011;67981;51.022;-2.870;2023-04-01T19:06:49;7.07;;;2.88;;
78664;SDS011;67981;51.022;-2.870;2023-04-01T19:12:28;3.53;;;2.58;;
78664;SDS011;67981;51.022;-2.870;2023-04-01T19:15:21;3.83;;;2.40;;
78664;SDS011;67981;51.022;-2.870;2023-04-01T19:18:09;6.72;;;2.55;;
78664;SDS011;67981;51.022;-2.870;2023-04-01T19:53:37;7.65;;;2.58;;
78664;SDS011;67981;51.022;-2.870;2023-04-01T19:56:18;4.80;;;2.50;;
78664;SDS011;67981;51.022;-2.870;2023-04-01T20:04:18;6.22;;;2.85;;
78664;SDS011;67981;51.022;-2.870;2023-04-01T20:10:00;7.15;;;2.83;;
78664;SDS011;67981;51.022;-2.870;2023-04-01T20:17:57;8.07;;;3.45;;
78664;SDS011;67981;51.022;-2.870;2023-04-01T20:20:27;7.10;;;3.55;;
78664;SDS011;67981;51.022;-2.870;2023-04-01T20:31:11;6.30;;;3.20;;
78664;SDS011;67981;51.022;-2.870;2023-04-01T20:53:15;8.48;;;3.03;;
78664;SDS011;67981;51.022;-2.870;2023-04-01T21:03:49;4.75;;;2.78;;
78664;SDS011;67981;51.022;-2.870;2023-04-01T21:17:41;7.00;;;2.72;;
78664;SDS011;67981;51.022;-2.870;2023-04-01T21:28:38;3.65;;;2.17;;
78664;SDS011;67981;51.022;-2.870;2023-04-01T21:39:12;4.95;;;2.90;;
78664;SDS011;67981;51.022;-2.870;2023-04-01T21:41:50;3.95;;;2.03;;
78664;SDS011;67981;51.022;-2.870;2023-04-01T21:44:29;3.33;;;2.17;;
78664;SDS011;67981;51.022;-2.870;2023-04-01T21:53:12;3.38;;;2.33;;
78664;SDS011;67981;51.022;-2.870;2023-04-01T21:55:59;4.53;;;2.55;;
78664;SDS011;67981;51.022;-2.870;2023-04-01T21:59:09;4.82;;;2.30;;
78664;SDS011;67981;51.022;-2.870;2023-04-01T22:18:13;3.88;;;2.97;;
78664;SDS011;67981;51.022;-2.870;2023-04-01T22:20:53;3.78;;;2.42;;
78664;SDS011;67981;51.022;-2.870;2023-04-01T22:23:37;4.07;;;2.60;;
78664;SDS011;67981;51.022;-2.870;2023-04-01T22:31:25;4.03;;;2.53;;
78664;SDS011;67981;51.022;-2.870;2023-04-01T22:36:40;3.60;;;2.35;;
78664;SDS011;67981;51.022;-2.870;2023-04-01T22:42:06;3.88;;;2.20;;
78664;SDS011;67981;51.022;-2.870;2023-04-01T22:52:59;2.70;;;1.90;;
78664;SDS011;67981;51.022;-2.870;2023-04-01T22:55:30;3.30;;;2.45;;
78664;SDS011;67981;51.022;-2.870;2023-04-01T23:00:40;2.60;;;1.80;;
78664;SDS011;67981;51.022;-2.870;2023-04-01T23:05:56;3.03;;;1.77;;
78664;SDS011;67981;51.022;-2.870;2023-04-01T23:11:27;2.72;;;1.73;;
78664;SDS011;67981;51.022;-2.870;2023-04-01T23:25:13;3.00;;;2.10;;
78664;SDS011;67981;51.022;-2.870;2023-04-01T23:35:46;3.05;;;2.05;;
78664;SDS011;67981;51.022;-2.870;2023-04-01T23:38:15;4.18;;;2.00;;
78664;SDS011;67981;51.022;-2.870;2023-04-01T23:40:41;4.68;;;1.70;;
78664;SDS011;67981;51.022;-2.870;2023-04-01T23:43:14;5.45;;;2.22;;
78664;SDS011;67981;51.022;-2.870;2023-04-01T23:45:47;3.85;;;2.38;;
78664;SDS011;67981;51.022;-2.870;2023-04-01T23:48:13;2.80;;;2.00;;
78664;SDS011;67981;51.022;-2.870;2023-04-01T23:50:41;3.20;;;2.05;;
78664;SDS011;67981;51.022;-2.870;2023-04-01T23:53:16;2.45;;;1.75;;
78664;SDS011;67981;51.022;-2.870;2023-04-01T23:55:44;2.20;;;1.45;;
78664;SDS011;67981;51.022;-2.870;2023-04-01T23:58:13;2.88;;;1.95;;
